Terminal Aerodrome Forecast
Issued by NWS Bismarck, ND

Home | Current Version | Previous Version | Graphics & Text | Print | Product List | Glossary On
Versions: 1 2 3 4 5 6 7 8 9 10 11 12 13 14
000
FTUS43 KBIS 291100
TAFISN
TAF
KISN 291125Z 2912/3012 34011KT P6SM BKN100
     FM291800 02011KT P6SM SCT100
     FM300300 07009KT P6SM SKC=

USA.gov is the U.S. government's official web portal to all federal, state and local government web resources and services.